sensor_id;sensor_type;location;lat;lon;timestamp;P1;durP1;ratioP1;P2;durP2;ratioP2
57947;SDS011;43754;56.992;24.292;2022-10-16T00:02:24;17.60;;;12.48;;
57947;SDS011;43754;56.992;24.292;2022-10-16T00:04:56;19.55;;;11.60;;
57947;SDS011;43754;56.992;24.292;2022-10-16T00:07:28;21.02;;;12.02;;
57947;SDS011;43754;56.992;24.292;2022-10-16T00:10:01;17.95;;;11.90;;
57947;SDS011;43754;56.992;24.292;2022-10-16T00:12:34;16.15;;;11.25;;
57947;SDS011;43754;56.992;24.292;2022-10-16T00:15:06;21.20;;;12.35;;
57947;SDS011;43754;56.992;24.292;2022-10-16T00:17:39;19.48;;;13.73;;
57947;SDS011;43754;56.992;24.292;2022-10-16T00:20:11;18.75;;;12.40;;
57947;SDS011;43754;56.992;24.292;2022-10-16T00:22:43;18.15;;;12.00;;
57947;SDS011;43754;56.992;24.292;2022-10-16T00:25:17;22.55;;;12.82;;
57947;SDS011;43754;56.992;24.292;2022-10-16T00:27:49;18.08;;;12.43;;
57947;SDS011;43754;56.992;24.292;2022-10-16T00:30:20;16.42;;;11.68;;
57947;SDS011;43754;56.992;24.292;2022-10-16T00:32:52;17.60;;;12.65;;
57947;SDS011;43754;56.992;24.292;2022-10-16T00:35:25;16.73;;;12.32;;
57947;SDS011;43754;56.992;24.292;2022-10-16T00:37:57;16.58;;;12.35;;
57947;SDS011;43754;56.992;24.292;2022-10-16T00:40:30;19.52;;;12.23;;
57947;SDS011;43754;56.992;24.292;2022-10-16T00:43:04;17.35;;;13.00;;
57947;SDS011;43754;56.992;24.292;2022-10-16T00:45:41;18.85;;;12.75;;
57947;SDS011;43754;56.992;24.292;2022-10-16T00:48:13;19.67;;;13.43;;
57947;SDS011;43754;56.992;24.292;2022-10-16T00:50:46;20.00;;;13.50;;
57947;SDS011;43754;56.992;24.292;2022-10-16T00:53:18;17.92;;;12.73;;
57947;SDS011;43754;56.992;24.292;2022-10-16T00:55:51;17.58;;;12.32;;
57947;SDS011;43754;56.992;24.292;2022-10-16T00:58:23;21.85;;;14.18;;
57947;SDS011;43754;56.992;24.292;2022-10-16T01:00:56;20.60;;;13.05;;
57947;SDS011;43754;56.992;24.292;2022-10-16T01:03:29;19.98;;;13.05;;
57947;SDS011;43754;56.992;24.292;2022-10-16T01:06:15;17.52;;;11.75;;
57947;SDS011;43754;56.992;24.292;2022-10-16T01:09:03;19.70;;;13.27;;
57947;SDS011;43754;56.992;24.292;2022-10-16T01:11:47;21.75;;;14.23;;
57947;SDS011;43754;56.992;24.292;2022-10-16T01:14:28;18.98;;;13.30;;
57947;SDS011;43754;56.992;24.292;2022-10-16T01:17:10;20.90;;;13.95;;
57947;SDS011;43754;56.992;24.292;2022-10-16T01:19:49;15.82;;;12.80;;
57947;SDS011;43754;56.992;24.292;2022-10-16T01:22:35;18.15;;;12.77;;
57947;SDS011;43754;56.992;24.292;2022-10-16T01:25:14;17.00;;;13.20;;
57947;SDS011;43754;56.992;24.292;2022-10-16T01:27:53;18.55;;;12.50;;
57947;SDS011;43754;56.992;24.292;2022-10-16T01:30:26;20.80;;;12.60;;
57947;SDS011;43754;56.992;24.292;2022-10-16T01:33:02;17.42;;;12.88;;
57947;SDS011;43754;56.992;24.292;2022-10-16T01:35:41;22.38;;;14.10;;
57947;SDS011;43754;56.992;24.292;2022-10-16T01:38:19;21.92;;;13.30;;
57947;SDS011;43754;56.992;24.292;2022-10-16T01:40:56;19.08;;;13.90;;
57947;SDS011;43754;56.992;24.292;2022-10-16T01:43:35;20.67;;;13.40;;
57947;SDS011;43754;56.992;24.292;2022-10-16T01:46:10;21.50;;;14.30;;
57947;SDS011;43754;56.992;24.292;2022-10-16T01:48:44;20.48;;;13.43;;
57947;SDS011;43754;56.992;24.292;2022-10-16T01:51:17;19.63;;;13.60;;
57947;SDS011;43754;56.992;24.292;2022-10-16T01:53:52;23.25;;;13.90;;
57947;SDS011;43754;56.992;24.292;2022-10-16T01:56:26;20.17;;;14.05;;
57947;SDS011;43754;56.992;24.292;2022-10-16T01:59:02;18.63;;;14.15;;
57947;SDS011;43754;56.992;24.292;2022-10-16T02:01:38;18.95;;;14.18;;
57947;SDS011;43754;56.992;24.292;2022-10-16T02:04:15;20.27;;;15.00;;
57947;SDS011;43754;56.992;24.292;2022-10-16T02:06:50;21.95;;;15.23;;
57947;SDS011;43754;56.992;24.292;2022-10-16T02:09:23;22.50;;;15.32;;
57947;SDS011;43754;56.992;24.292;2022-10-16T02:11:56;20.92;;;15.13;;
57947;SDS011;43754;56.992;24.292;2022-10-16T02:14:31;22.92;;;15.90;;
57947;SDS011;43754;56.992;24.292;2022-10-16T02:17:09;21.50;;;15.13;;
57947;SDS011;43754;56.992;24.292;2022-10-16T02:19:43;26.17;;;16.83;;
57947;SDS011;43754;56.992;24.292;2022-10-16T02:22:19;18.90;;;15.60;;
57947;SDS011;43754;56.992;24.292;2022-10-16T02:24:57;21.77;;;15.95;;
57947;SDS011;43754;56.992;24.292;2022-10-16T02:27:34;26.33;;;16.70;;
57947;SDS011;43754;56.992;24.292;2022-10-16T02:30:14;21.83;;;16.80;;
57947;SDS011;43754;56.992;24.292;2022-10-16T02:32:52;20.52;;;16.13;;
57947;SDS011;43754;56.992;24.292;2022-10-16T02:35:26;21.00;;;15.77;;
57947;SDS011;43754;56.992;24.292;2022-10-16T02:37:59;24.00;;;15.77;;
57947;SDS011;43754;56.992;24.292;2022-10-16T02:40:32;26.42;;;16.90;;
57947;SDS011;43754;56.992;24.292;2022-10-16T02:43:05;22.50;;;16.48;;
57947;SDS011;43754;56.992;24.292;2022-10-16T02:45:39;26.67;;;16.55;;
57947;SDS011;43754;56.992;24.292;2022-10-16T02:48:11;28.58;;;16.58;;
57947;SDS011;43754;56.992;24.292;2022-10-16T02:50:43;23.90;;;17.65;;
57947;SDS011;43754;56.992;24.292;2022-10-16T02:53:15;27.23;;;18.55;;
57947;SDS011;43754;56.992;24.292;2022-10-16T02:55:47;25.83;;;16.60;;
57947;SDS011;43754;56.992;24.292;2022-10-16T02:58:19;26.40;;;18.60;;
57947;SDS011;43754;56.992;24.292;2022-10-16T03:00:52;22.73;;;17.42;;
57947;SDS011;43754;56.992;24.292;2022-10-16T03:03:24;24.38;;;17.75;;
57947;SDS011;43754;56.992;24.292;2022-10-16T03:05:56;28.48;;;17.50;;
57947;SDS011;43754;56.992;24.292;2022-10-16T03:08:28;23.77;;;16.52;;
57947;SDS011;43754;56.992;24.292;2022-10-16T03:11:00;27.30;;;18.55;;
57947;SDS011;43754;56.992;24.292;2022-10-16T03:13:32;24.58;;;18.38;;
57947;SDS011;43754;56.992;24.292;2022-10-16T03:16:06;22.90;;;18.13;;
57947;SDS011;43754;56.992;24.292;2022-10-16T03:18:38;27.65;;;20.00;;
57947;SDS011;43754;56.992;24.292;2022-10-16T03:21:10;24.92;;;18.80;;
57947;SDS011;43754;56.992;24.292;2022-10-16T03:23:42;31.60;;;21.33;;
57947;SDS011;43754;56.992;24.292;2022-10-16T03:26:14;29.58;;;18.27;;
57947;SDS011;43754;56.992;24.292;2022-10-16T03:28:46;25.17;;;17.40;;
57947;SDS011;43754;56.992;24.292;2022-10-16T03:31:19;26.70;;;19.33;;
57947;SDS011;43754;56.992;24.292;2022-10-16T03:33:51;29.05;;;20.38;;
57947;SDS011;43754;56.992;24.292;2022-10-16T03:36:23;29.75;;;21.67;;
57947;SDS011;43754;56.992;24.292;2022-10-16T03:38:56;30.88;;;21.35;;
57947;SDS011;43754;56.992;24.292;2022-10-16T03:41:28;28.60;;;19.83;;
57947;SDS011;43754;56.992;24.292;2022-10-16T03:44:00;29.02;;;20.95;;
57947;SDS011;43754;56.992;24.292;2022-10-16T03:46:33;29.55;;;21.55;;
57947;SDS011;43754;56.992;24.292;2022-10-16T03:49:05;28.88;;;20.23;;
57947;SDS011;43754;56.992;24.292;2022-10-16T03:51:40;33.97;;;21.25;;
57947;SDS011;43754;56.992;24.292;2022-10-16T03:54:12;27.58;;;19.63;;
57947;SDS011;43754;56.992;24.292;2022-10-16T03:56:44;25.63;;;19.98;;
57947;SDS011;43754;56.992;24.292;2022-10-16T03:59:16;29.50;;;20.35;;
57947;SDS011;43754;56.992;24.292;2022-10-16T04:01:49;28.02;;;19.85;;
57947;SDS011;43754;56.992;24.292;2022-10-16T04:04:21;25.88;;;20.90;;
57947;SDS011;43754;56.992;24.292;2022-10-16T04:06:53;33.53;;;21.90;;
57947;SDS011;43754;56.992;24.292;2022-10-16T04:09:25;26.90;;;20.30;;
57947;SDS011;43754;56.992;24.292;2022-10-16T04:11:57;27.23;;;21.85;;
57947;SDS011;43754;56.992;24.292;2022-10-16T04:14:29;32.38;;;20.98;;
57947;SDS011;43754;56.992;24.292;2022-10-16T04:17:03;27.20;;;20.13;;
57947;SDS011;43754;56.992;24.292;2022-10-16T04:19:34;32.50;;;20.83;;
57947;SDS011;43754;56.992;24.292;2022-10-16T04:22:06;29.70;;;21.83;;
57947;SDS011;43754;56.992;24.292;2022-10-16T04:24:38;26.88;;;19.30;;
57947;SDS011;43754;56.992;24.292;2022-10-16T04:27:10;30.40;;;20.92;;
57947;SDS011;43754;56.992;24.292;2022-10-16T04:29:42;26.90;;;20.35;;
57947;SDS011;43754;56.992;24.292;2022-10-16T04:32:16;27.63;;;20.48;;
57947;SDS011;43754;56.992;24.292;2022-10-16T04:34:48;25.85;;;18.95;;
57947;SDS011;43754;56.992;24.292;2022-10-16T04:37:22;28.85;;;21.13;;
57947;SDS011;43754;56.992;24.292;2022-10-16T04:39:55;28.55;;;21.13;;
57947;SDS011;43754;56.992;24.292;2022-10-16T04:42:27;28.48;;;20.92;;
57947;SDS011;43754;56.992;24.292;2022-10-16T04:44:59;34.88;;;22.38;;
57947;SDS011;43754;56.992;24.292;2022-10-16T04:47:33;31.38;;;22.35;;
57947;SDS011;43754;56.992;24.292;2022-10-16T04:50:05;27.60;;;22.20;;
57947;SDS011;43754;56.992;24.292;2022-10-16T04:52:37;32.17;;;22.02;;
57947;SDS011;43754;56.992;24.292;2022-10-16T04:55:10;31.58;;;21.75;;
57947;SDS011;43754;56.992;24.292;2022-10-16T04:57:42;30.08;;;19.60;;
57947;SDS011;43754;56.992;24.292;2022-10-16T05:00:14;27.38;;;20.70;;
57947;SDS011;43754;56.992;24.292;2022-10-16T05:02:47;37.83;;;24.60;;
57947;SDS011;43754;56.992;24.292;2022-10-16T05:05:21;34.47;;;24.60;;
57947;SDS011;43754;56.992;24.292;2022-10-16T05:07:54;29.58;;;20.48;;
57947;SDS011;43754;56.992;24.292;2022-10-16T05:10:26;37.67;;;24.58;;
57947;SDS011;43754;56.992;24.292;2022-10-16T05:12:58;38.83;;;23.95;;
57947;SDS011;43754;56.992;24.292;2022-10-16T05:15:30;34.40;;;22.85;;
57947;SDS011;43754;56.992;24.292;2022-10-16T05:18:03;29.83;;;19.65;;
57947;SDS011;43754;56.992;24.292;2022-10-16T05:20:36;35.85;;;23.90;;
57947;SDS011;43754;56.992;24.292;2022-10-16T05:23:08;36.45;;;23.85;;
57947;SDS011;43754;56.992;24.292;2022-10-16T05:25:41;43.05;;;24.77;;
57947;SDS011;43754;56.992;24.292;2022-10-16T05:28:13;39.97;;;27.00;;
57947;SDS011;43754;56.992;24.292;2022-10-16T05:30:45;44.80;;;23.52;;
57947;SDS011;43754;56.992;24.292;2022-10-16T05:33:20;49.17;;;27.88;;
57947;SDS011;43754;56.992;24.292;2022-10-16T05:35:53;45.35;;;28.33;;
57947;SDS011;43754;56.992;24.292;2022-10-16T05:38:25;40.90;;;25.50;;
57947;SDS011;43754;56.992;24.292;2022-10-16T05:40:57;43.13;;;26.63;;
57947;SDS011;43754;56.992;24.292;2022-10-16T05:43:29;42.65;;;25.85;;
57947;SDS011;43754;56.992;24.292;2022-10-16T05:46:03;48.85;;;27.17;;
57947;SDS011;43754;56.992;24.292;2022-10-16T05:48:37;41.10;;;25.60;;
57947;SDS011;43754;56.992;24.292;2022-10-16T05:51:10;47.03;;;27.33;;
57947;SDS011;43754;56.992;24.292;2022-10-16T05:53:43;48.15;;;30.10;;
57947;SDS011;43754;56.992;24.292;2022-10-16T05:56:20;52.15;;;28.33;;
57947;SDS011;43754;56.992;24.292;2022-10-16T05:58:52;48.83;;;30.83;;
57947;SDS011;43754;56.992;24.292;2022-10-16T06:01:24;49.25;;;30.45;;
57947;SDS011;43754;56.992;24.292;2022-10-16T06:03:58;46.15;;;29.70;;
57947;SDS011;43754;56.992;24.292;2022-10-16T06:06:30;45.70;;;28.63;;
57947;SDS011;43754;56.992;24.292;2022-10-16T06:09:02;50.42;;;31.27;;
57947;SDS011;43754;56.992;24.292;2022-10-16T06:11:34;52.30;;;29.35;;
57947;SDS011;43754;56.992;24.292;2022-10-16T06:14:07;45.38;;;29.48;;
57947;SDS011;43754;56.992;24.292;2022-10-16T06:16:40;43.20;;;27.40;;
57947;SDS011;43754;56.992;24.292;2022-10-16T06:19:14;44.63;;;27.40;;
57947;SDS011;43754;56.992;24.292;2022-10-16T06:21:47;43.85;;;27.75;;
57947;SDS011;43754;56.992;24.292;2022-10-16T06:24:19;49.92;;;30.92;;
57947;SDS011;43754;56.992;24.292;2022-10-16T06:26:51;49.08;;;30.95;;
57947;SDS011;43754;56.992;24.292;2022-10-16T06:29:23;51.03;;;31.27;;
57947;SDS011;43754;56.992;24.292;2022-10-16T06:31:55;51.78;;;30.83;;
57947;SDS011;43754;56.992;24.292;2022-10-16T06:34:29;46.40;;;27.15;;
57947;SDS011;43754;56.992;24.292;2022-10-16T06:37:01;40.65;;;28.65;;
57947;SDS011;43754;56.992;24.292;2022-10-16T06:39:32;43.05;;;28.45;;
57947;SDS011;43754;56.992;24.292;2022-10-16T06:42:04;40.05;;;27.08;;
57947;SDS011;43754;56.992;24.292;2022-10-16T06:44:39;43.53;;;28.90;;
57947;SDS011;43754;56.992;24.292;2022-10-16T06:47:11;42.75;;;28.85;;
57947;SDS011;43754;56.992;24.292;2022-10-16T06:49:45;37.70;;;27.00;;
57947;SDS011;43754;56.992;24.292;2022-10-16T06:52:24;42.33;;;26.90;;
57947;SDS011;43754;56.992;24.292;2022-10-16T06:54:59;42.55;;;28.20;;
57947;SDS011;43754;56.992;24.292;2022-10-16T06:57:32;41.47;;;28.05;;
57947;SDS011;43754;56.992;24.292;2022-10-16T07:00:04;43.63;;;27.38;;
57947;SDS011;43754;56.992;24.292;2022-10-16T07:02:37;39.60;;;26.50;;
57947;SDS011;43754;56.992;24.292;2022-10-16T07:05:10;48.13;;;31.95;;
57947;SDS011;43754;56.992;24.292;2022-10-16T07:07:42;44.40;;;30.67;;
57947;SDS011;43754;56.992;24.292;2022-10-16T07:10:14;46.00;;;29.15;;
57947;SDS011;43754;56.992;24.292;2022-10-16T07:12:46;46.10;;;28.42;;
57947;SDS011;43754;56.992;24.292;2022-10-16T07:15:18;48.55;;;29.30;;
57947;SDS011;43754;56.992;24.292;2022-10-16T07:17:50;42.83;;;29.25;;
57947;SDS011;43754;56.992;24.292;2022-10-16T07:20:24;47.42;;;28.85;;
57947;SDS011;43754;56.992;24.292;2022-10-16T07:22:56;54.83;;;33.47;;
57947;SDS011;43754;56.992;24.292;2022-10-16T07:25:28;45.65;;;30.10;;
57947;SDS011;43754;56.992;24.292;2022-10-16T07:28:00;47.97;;;31.48;;
57947;SDS011;43754;56.992;24.292;2022-10-16T07:30:34;51.95;;;33.03;;
57947;SDS011;43754;56.992;24.292;2022-10-16T07:33:07;51.70;;;32.85;;
57947;SDS011;43754;56.992;24.292;2022-10-16T07:35:48;51.78;;;31.63;;
57947;SDS011;43754;56.992;24.292;2022-10-16T07:38:21;49.55;;;31.60;;
57947;SDS011;43754;56.992;24.292;2022-10-16T07:40:56;49.67;;;32.28;;
57947;SDS011;43754;56.992;24.292;2022-10-16T07:43:29;60.55;;;33.97;;
57947;SDS011;43754;56.992;24.292;2022-10-16T07:46:01;47.60;;;30.33;;
57947;SDS011;43754;56.992;24.292;2022-10-16T07:48:37;51.70;;;29.00;;
57947;SDS011;43754;56.992;24.292;2022-10-16T07:51:10;50.63;;;32.83;;
57947;SDS011;43754;56.992;24.292;2022-10-16T07:53:42;51.70;;;33.50;;
57947;SDS011;43754;56.992;24.292;2022-10-16T07:56:15;42.88;;;29.27;;
57947;SDS011;43754;56.992;24.292;2022-10-16T07:58:48;46.50;;;30.25;;
57947;SDS011;43754;56.992;24.292;2022-10-16T08:01:21;46.35;;;30.98;;
57947;SDS011;43754;56.992;24.292;2022-10-16T08:03:53;46.08;;;31.65;;
57947;SDS011;43754;56.992;24.292;2022-10-16T08:06:27;40.33;;;26.42;;
57947;SDS011;43754;56.992;24.292;2022-10-16T08:08:59;44.08;;;30.00;;
57947;SDS011;43754;56.992;24.292;2022-10-16T08:11:31;46.75;;;31.30;;
57947;SDS011;43754;56.992;24.292;2022-10-16T08:14:04;41.85;;;30.08;;
57947;SDS011;43754;56.992;24.292;2022-10-16T08:16:36;41.72;;;29.10;;
57947;SDS011;43754;56.992;24.292;2022-10-16T08:19:08;45.40;;;28.63;;
57947;SDS011;43754;56.992;24.292;2022-10-16T08:21:42;47.83;;;30.73;;
57947;SDS011;43754;56.992;24.292;2022-10-16T08:24:14;41.00;;;27.88;;
57947;SDS011;43754;56.992;24.292;2022-10-16T08:26:46;39.40;;;30.00;;
57947;SDS011;43754;56.992;24.292;2022-10-16T08:29:18;38.42;;;28.48;;
57947;SDS011;43754;56.992;24.292;2022-10-16T08:31:50;48.10;;;31.00;;
57947;SDS011;43754;56.992;24.292;2022-10-16T08:34:22;42.78;;;29.50;;
57947;SDS011;43754;56.992;24.292;2022-10-16T08:36:55;45.80;;;28.65;;
57947;SDS011;43754;56.992;24.292;2022-10-16T08:39:27;45.88;;;30.00;;
57947;SDS011;43754;56.992;24.292;2022-10-16T08:42:04;41.97;;;28.33;;
57947;SDS011;43754;56.992;24.292;2022-10-16T08:48:11;48.92;;;32.60;;
57947;SDS011;43754;56.992;24.292;2022-10-16T08:50:52;48.42;;;32.33;;
57947;SDS011;43754;56.992;24.292;2022-10-16T08:53:27;47.00;;;31.85;;
57947;SDS011;43754;56.992;24.292;2022-10-16T08:56:02;46.25;;;32.97;;
57947;SDS011;43754;56.992;24.292;2022-10-16T08:58:35;46.22;;;31.80;;
57947;SDS011;43754;56.992;24.292;2022-10-16T09:01:10;42.70;;;29.73;;
57947;SDS011;43754;56.992;24.292;2022-10-16T09:03:50;46.58;;;31.10;;
57947;SDS011;43754;56.992;24.292;2022-10-16T09:06:38;46.95;;;32.42;;
57947;SDS011;43754;56.992;24.292;2022-10-16T09:09:28;47.75;;;32.95;;
57947;SDS011;43754;56.992;24.292;2022-10-16T09:12:22;44.65;;;31.15;;
57947;SDS011;43754;56.992;24.292;2022-10-16T09:15:01;50.83;;;33.20;;
57947;SDS011;43754;56.992;24.292;2022-10-16T09:17:41;47.38;;;34.25;;
57947;SDS011;43754;56.992;24.292;2022-10-16T09:20:30;61.17;;;39.13;;
57947;SDS011;43754;56.992;24.292;2022-10-16T09:23:10;52.40;;;36.75;;
57947;SDS011;43754;56.992;24.292;2022-10-16T09:25:48;49.42;;;34.53;;
57947;SDS011;43754;56.992;24.292;2022-10-16T09:28:22;49.55;;;32.50;;
57947;SDS011;43754;56.992;24.292;2022-10-16T09:30:54;40.13;;;28.77;;
57947;SDS011;43754;56.992;24.292;2022-10-16T09:33:28;45.55;;;30.23;;
57947;SDS011;43754;56.992;24.292;2022-10-16T09:36:04;45.58;;;30.20;;
57947;SDS011;43754;56.992;24.292;2022-10-16T09:38:38;48.88;;;31.83;;
57947;SDS011;43754;56.992;24.292;2022-10-16T09:41:15;45.35;;;31.90;;
57947;SDS011;43754;56.992;24.292;2022-10-16T09:43:52;47.33;;;32.22;;
57947;SDS011;43754;56.992;24.292;2022-10-16T09:46:27;47.45;;;33.50;;
57947;SDS011;43754;56.992;24.292;2022-10-16T09:49:00;46.63;;;34.10;;
57947;SDS011;43754;56.992;24.292;2022-10-16T09:51:35;46.38;;;33.38;;
57947;SDS011;43754;56.992;24.292;2022-10-16T09:54:13;43.72;;;31.70;;
57947;SDS011;43754;56.992;24.292;2022-10-16T09:56:48;44.78;;;31.25;;
57947;SDS011;43754;56.992;24.292;2022-10-16T09:59:23;43.55;;;31.95;;
57947;SDS011;43754;56.992;24.292;2022-10-16T10:02:00;41.17;;;31.05;;
57947;SDS011;43754;56.992;24.292;2022-10-16T10:04:38;47.58;;;31.92;;
57947;SDS011;43754;56.992;24.292;2022-10-16T10:07:17;42.78;;;29.38;;
57947;SDS011;43754;56.992;24.292;2022-10-16T10:09:52;45.88;;;31.95;;
57947;SDS011;43754;56.992;24.292;2022-10-16T10:12:27;45.45;;;31.30;;
57947;SDS011;43754;56.992;24.292;2022-10-16T10:15:04;46.53;;;31.92;;
57947;SDS011;43754;56.992;24.292;2022-10-16T10:17:45;47.72;;;32.15;;
57947;SDS011;43754;56.992;24.292;2022-10-16T10:20:22;47.55;;;32.28;;
57947;SDS011;43754;56.992;24.292;2022-10-16T10:22:56;47.22;;;31.73;;
57947;SDS011;43754;56.992;24.292;2022-10-16T10:25:39;48.72;;;32.60;;
57947;SDS011;43754;56.992;24.292;2022-10-16T10:28:25;49.00;;;32.38;;
57947;SDS011;43754;56.992;24.292;2022-10-16T10:31:20;47.70;;;31.65;;
57947;SDS011;43754;56.992;24.292;2022-10-16T10:33:57;45.35;;;30.50;;
57947;SDS011;43754;56.992;24.292;2022-10-16T10:36:34;51.03;;;32.35;;
57947;SDS011;43754;56.992;24.292;2022-10-16T10:39:11;45.00;;;31.40;;
57947;SDS011;43754;56.992;24.292;2022-10-16T10:41:59;40.47;;;28.58;;
57947;SDS011;43754;56.992;24.292;2022-10-16T10:44:47;43.05;;;29.75;;
57947;SDS011;43754;56.992;24.292;2022-10-16T10:47:30;47.25;;;30.33;;
57947;SDS011;43754;56.992;24.292;2022-10-16T10:50:12;45.15;;;29.33;;
57947;SDS011;43754;56.992;24.292;2022-10-16T10:52:52;36.97;;;26.50;;
57947;SDS011;43754;56.992;24.292;2022-10-16T10:55:32;45.72;;;30.88;;
57947;SDS011;43754;56.992;24.292;2022-10-16T10:58:15;44.00;;;28.98;;
57947;SDS011;43754;56.992;24.292;2022-10-16T11:01:06;38.88;;;28.63;;
57947;SDS011;43754;56.992;24.292;2022-10-16T11:03:45;45.92;;;31.02;;
57947;SDS011;43754;56.992;24.292;2022-10-16T11:06:30;46.13;;;28.85;;
57947;SDS011;43754;56.992;24.292;2022-10-16T11:09:09;40.63;;;28.38;;
57947;SDS011;43754;56.992;24.292;2022-10-16T11:11:45;39.88;;;29.52;;
57947;SDS011;43754;56.992;24.292;2022-10-16T11:14:22;42.42;;;29.65;;
57947;SDS011;43754;56.992;24.292;2022-10-16T11:17:01;41.78;;;28.85;;
57947;SDS011;43754;56.992;24.292;2022-10-16T11:19:40;40.03;;;27.60;;
57947;SDS011;43754;56.992;24.292;2022-10-16T11:22:19;36.42;;;26.90;;
57947;SDS011;43754;56.992;24.292;2022-10-16T11:24:59;44.15;;;30.73;;
57947;SDS011;43754;56.992;24.292;2022-10-16T11:27:37;40.63;;;27.75;;
57947;SDS011;43754;56.992;24.292;2022-10-16T11:30:15;42.95;;;30.05;;
57947;SDS011;43754;56.992;24.292;2022-10-16T11:32:54;44.28;;;29.80;;
57947;SDS011;43754;56.992;24.292;2022-10-16T11:35:47;43.67;;;29.70;;
57947;SDS011;43754;56.992;24.292;2022-10-16T11:38:26;39.67;;;29.38;;
57947;SDS011;43754;56.992;24.292;2022-10-16T11:41:02;45.22;;;29.65;;
57947;SDS011;43754;56.992;24.292;2022-10-16T11:43:43;42.25;;;30.35;;
57947;SDS011;43754;56.992;24.292;2022-10-16T11:46:21;40.13;;;30.60;;
57947;SDS011;43754;56.992;24.292;2022-10-16T11:49:00;47.72;;;31.25;;
57947;SDS011;43754;56.992;24.292;2022-10-16T11:51:39;39.45;;;27.83;;
57947;SDS011;43754;56.992;24.292;2022-10-16T11:54:17;47.63;;;31.25;;
57947;SDS011;43754;56.992;24.292;2022-10-16T11:56:58;41.00;;;29.85;;
57947;SDS011;43754;56.992;24.292;2022-10-16T11:59:35;43.80;;;30.25;;
57947;SDS011;43754;56.992;24.292;2022-10-16T12:02:28;47.25;;;32.85;;
57947;SDS011;43754;56.992;24.292;2022-10-16T12:05:11;42.15;;;29.88;;
57947;SDS011;43754;56.992;24.292;2022-10-16T12:07:52;47.95;;;32.20;;
57947;SDS011;43754;56.992;24.292;2022-10-16T12:10:31;51.30;;;34.08;;
57947;SDS011;43754;56.992;24.292;2022-10-16T12:16:06;50.17;;;32.55;;
57947;SDS011;43754;56.992;24.292;2022-10-16T12:19:02;52.63;;;34.30;;
57947;SDS011;43754;56.992;24.292;2022-10-16T12:21:43;51.67;;;33.88;;
57947;SDS011;43754;56.992;24.292;2022-10-16T12:24:21;50.30;;;32.05;;
57947;SDS011;43754;56.992;24.292;2022-10-16T12:27:06;47.08;;;31.52;;
57947;SDS011;43754;56.992;24.292;2022-10-16T12:29:54;48.28;;;32.72;;
57947;SDS011;43754;56.992;24.292;2022-10-16T12:32:29;46.22;;;30.92;;
57947;SDS011;43754;56.992;24.292;2022-10-16T12:35:19;45.47;;;31.30;;
57947;SDS011;43754;56.992;24.292;2022-10-16T12:38:03;45.50;;;29.38;;
57947;SDS011;43754;56.992;24.292;2022-10-16T12:40:38;45.53;;;30.92;;
57947;SDS011;43754;56.992;24.292;2022-10-16T12:43:11;42.80;;;29.73;;
57947;SDS011;43754;56.992;24.292;2022-10-16T12:46:01;41.42;;;28.25;;
57947;SDS011;43754;56.992;24.292;2022-10-16T12:48:35;33.97;;;25.10;;
57947;SDS011;43754;56.992;24.292;2022-10-16T12:51:34;40.55;;;26.83;;
57947;SDS011;43754;56.992;24.292;2022-10-16T12:54:13;40.53;;;28.20;;
57947;SDS011;43754;56.992;24.292;2022-10-16T12:56:50;52.35;;;29.35;;
57947;SDS011;43754;56.992;24.292;2022-10-16T12:59:32;38.97;;;26.42;;
57947;SDS011;43754;56.992;24.292;2022-10-16T13:05:30;42.20;;;29.75;;
57947;SDS011;43754;56.992;24.292;2022-10-16T13:08:22;38.33;;;27.35;;
57947;SDS011;43754;56.992;24.292;2022-10-16T13:11:08;36.60;;;25.80;;
57947;SDS011;43754;56.992;24.292;2022-10-16T13:13:53;40.30;;;27.45;;
57947;SDS011;43754;56.992;24.292;2022-10-16T13:16:58;35.25;;;25.48;;
57947;SDS011;43754;56.992;24.292;2022-10-16T13:22:16;37.30;;;24.13;;
57947;SDS011;43754;56.992;24.292;2022-10-16T13:24:56;31.77;;;24.38;;
57947;SDS011;43754;56.992;24.292;2022-10-16T13:27:46;35.90;;;24.95;;
57947;SDS011;43754;56.992;24.292;2022-10-16T13:30:25;37.55;;;24.45;;
57947;SDS011;43754;56.992;24.292;2022-10-16T13:33:01;42.63;;;24.23;;
57947;SDS011;43754;56.992;24.292;2022-10-16T13:35:35;34.60;;;25.20;;
57947;SDS011;43754;56.992;24.292;2022-10-16T13:38:14;33.63;;;23.70;;
57947;SDS011;43754;56.992;24.292;2022-10-16T13:40:48;34.75;;;24.25;;
57947;SDS011;43754;56.992;24.292;2022-10-16T13:43:24;33.63;;;24.63;;
57947;SDS011;43754;56.992;24.292;2022-10-16T13:46:00;36.17;;;25.98;;
57947;SDS011;43754;56.992;24.292;2022-10-16T13:48:33;45.38;;;28.95;;
57947;SDS011;43754;56.992;24.292;2022-10-16T13:51:07;35.58;;;26.27;;
57947;SDS011;43754;56.992;24.292;2022-10-16T13:53:45;35.67;;;26.35;;
57947;SDS011;43754;56.992;24.292;2022-10-16T13:56:18;39.60;;;26.83;;
57947;SDS011;43754;56.992;24.292;2022-10-16T13:59:00;45.30;;;28.52;;
57947;SDS011;43754;56.992;24.292;2022-10-16T14:01:33;32.97;;;25.55;;
57947;SDS011;43754;56.992;24.292;2022-10-16T14:04:12;34.45;;;26.15;;
57947;SDS011;43754;56.992;24.292;2022-10-16T14:06:46;39.50;;;29.15;;
57947;SDS011;43754;56.992;24.292;2022-10-16T14:09:22;34.83;;;25.98;;
57947;SDS011;43754;56.992;24.292;2022-10-16T14:11:56;41.55;;;29.45;;
57947;SDS011;43754;56.992;24.292;2022-10-16T14:14:34;42.60;;;29.30;;
57947;SDS011;43754;56.992;24.292;2022-10-16T14:17:14;45.10;;;30.70;;
57947;SDS011;43754;56.992;24.292;2022-10-16T14:19:46;48.22;;;34.97;;
57947;SDS011;43754;56.992;24.292;2022-10-16T14:22:29;44.78;;;30.33;;
57947;SDS011;43754;56.992;24.292;2022-10-16T14:25:27;41.85;;;28.15;;
57947;SDS011;43754;56.992;24.292;2022-10-16T14:28:01;41.90;;;30.30;;
57947;SDS011;43754;56.992;24.292;2022-10-16T14:30:37;40.90;;;26.08;;
57947;SDS011;43754;56.992;24.292;2022-10-16T14:33:19;42.17;;;31.30;;
57947;SDS011;43754;56.992;24.292;2022-10-16T14:36:01;46.85;;;31.77;;
57947;SDS011;43754;56.992;24.292;2022-10-16T14:38:36;37.38;;;27.02;;
57947;SDS011;43754;56.992;24.292;2022-10-16T14:41:10;44.17;;;28.10;;
57947;SDS011;43754;56.992;24.292;2022-10-16T14:43:42;40.92;;;29.15;;
57947;SDS011;43754;56.992;24.292;2022-10-16T14:46:29;43.90;;;29.50;;
57947;SDS011;43754;56.992;24.292;2022-10-16T14:49:04;36.63;;;27.05;;
57947;SDS011;43754;56.992;24.292;2022-10-16T14:51:47;39.92;;;29.25;;
57947;SDS011;43754;56.992;24.292;2022-10-16T14:54:19;44.25;;;31.73;;
57947;SDS011;43754;56.992;24.292;2022-10-16T14:56:52;37.97;;;28.65;;
57947;SDS011;43754;56.992;24.292;2022-10-16T14:59:27;37.53;;;27.88;;
57947;SDS011;43754;56.992;24.292;2022-10-16T15:02:08;39.15;;;28.15;;
57947;SDS011;43754;56.992;24.292;2022-10-16T15:05:04;39.03;;;26.88;;
57947;SDS011;43754;56.992;24.292;2022-10-16T15:07:43;41.58;;;29.85;;
57947;SDS011;43754;56.992;24.292;2022-10-16T15:10:17;41.67;;;30.33;;
57947;SDS011;43754;56.992;24.292;2022-10-16T15:12:50;43.63;;;31.10;;